Time;durP1;ratioP1;P1;durP2;ratioP2;P2;SDS_P1;SDS_P2;PMS_P1;PMS_P2;Temp;Humidity;BMP_temperature;BMP_pressure;BME280_temperature;BME280_humidity;BME280_pressure;Samples;Min_cycle;Max_cycle;Signal;HPM_P1;HPM_P2
2023/08/15 00:02:25;;;;;;;9.23;5.15;;;;;;;;;;5054573;28;20242;-73
2023/08/15 00:05:10;;;;;;;11.18;5.40;;;;;;;;;;5050084;28;20194;-75
2023/08/15 00:07:54;;;;;;;7.43;5.40;;;;;;;;;;5040914;28;20309;-76
2023/08/15 00:10:39;;;;;;;11.43;4.95;;;;;;;;;;5051559;28;20229;-76
2023/08/15 00:13:24;;;;;;;6.82;4.90;;;;;;;;;;5047646;28;20237;-74
2023/08/15 00:16:08;;;;;;;11.35;5.57;;;;;;;;;;5040935;28;20195;-73
2023/08/15 00:18:52;;;;;;;11.65;5.63;;;;;;;;;;5037281;28;20198;-73
2023/08/15 00:21:37;;;;;;;12.98;5.43;;;;;;;;;;5038299;28;20245;-76
2023/08/15 00:24:22;;;;;;;8.10;4.72;;;;;;;;;;5051755;28;20183;-74
2023/08/15 00:27:06;;;;;;;9.50;5.10;;;;;;;;;;5050255;28;20666;-74
2023/08/15 00:29:50;;;;;;;6.85;5.25;;;;;;;;;;5053487;28;20607;-74
2023/08/15 00:32:38;;;;;;;6.45;5.13;;;;;;;;;;5050259;28;20190;-73
2023/08/15 00:35:23;;;;;;;13.55;5.75;;;;;;;;;;5046919;28;20186;-73
2023/08/15 00:38:07;;;;;;;10.15;5.82;;;;;;;;;;5052690;28;20190;-73
2023/08/15 00:40:52;;;;;;;9.43;5.35;;;;;;;;;;5049135;28;20210;-74
2023/08/15 00:43:36;;;;;;;8.80;5.50;;;;;;;;;;5048465;28;20238;-73
2023/08/15 00:46:22;;;;;;;14.15;5.85;;;;;;;;;;5045120;28;20211;-73
2023/08/15 00:49:07;;;;;;;15.18;5.85;;;;;;;;;;5035676;28;20222;-73
2023/08/15 00:51:51;;;;;;;7.82;5.93;;;;;;;;;;5050185;28;20210;-74
2023/08/15 00:54:36;;;;;;;7.68;5.45;;;;;;;;;;5049676;28;20190;-73
2023/08/15 00:57:21;;;;;;;9.82;5.53;;;;;;;;;;5051450;28;20195;-74
2023/08/15 01:00:06;;;;;;;12.05;5.50;;;;;;;;;;5046542;28;20288;-74
2023/08/15 01:02:51;;;;;;;8.77;6.10;;;;;;;;;;5042186;28;20665;-74
2023/08/15 01:05:37;;;;;;;11.57;5.95;;;;;;;;;;5055498;28;20482;-74
2023/08/15 01:08:22;;;;;;;8.55;5.32;;;;;;;;;;5048444;28;20187;-74
2023/08/15 01:11:07;;;;;;;7.80;5.50;;;;;;;;;;5035121;28;20210;-76
2023/08/15 01:14:05;;;;;;;10.50;5.57;;;;;;;;;;5047590;28;20204;-75
2023/08/15 01:16:51;;;;;;;5.90;5.30;;;;;;;;;;5048190;28;20246;-76
2023/08/15 01:19:39;;;;;;;10.07;6.15;;;;;;;;;;5050226;28;20635;-74
2023/08/15 01:22:27;;;;;;;7.45;5.93;;;;;;;;;;5045583;28;20206;-74
2023/08/15 01:25:12;;;;;;;6.85;6.15;;;;;;;;;;5048485;28;20258;-74
2023/08/15 01:27:57;;;;;;;8.05;5.85;;;;;;;;;;5040891;28;20260;-76
2023/08/15 01:30:47;;;;;;;7.95;6.00;;;;;;;;;;5040364;28;20270;-73
2023/08/15 01:33:44;;;;;;;11.45;6.10;;;;;;;;;;5046779;28;20234;-74
2023/08/15 01:36:32;;;;;;;8.47;6.60;;;;;;;;;;5040591;28;20458;-73
2023/08/15 01:39:21;;;;;;;9.52;5.75;;;;;;;;;;5041875;28;20811;-74
2023/08/15 01:42:07;;;;;;;7.50;6.13;;;;;;;;;;5039793;28;20199;-74
2023/08/15 01:44:53;;;;;;;10.60;6.80;;;;;;;;;;5039880;28;20845;-74
2023/08/15 01:47:38;;;;;;;11.10;6.70;;;;;;;;;;5039017;28;20451;-74
2023/08/15 01:50:22;;;;;;;8.85;6.70;;;;;;;;;;5043575;28;20454;-74
2023/08/15 01:53:07;;;;;;;11.30;6.75;;;;;;;;;;5047149;28;20443;-76
2023/08/15 01:55:52;;;;;;;9.30;6.65;;;;;;;;;;5045810;28;20502;-75
2023/08/15 01:58:37;;;;;;;14.48;7.45;;;;;;;;;;5047481;28;20409;-75
2023/08/15 02:01:21;;;;;;;10.93;7.00;;;;;;;;;;5031016;28;20416;-75
2023/08/15 02:04:06;;;;;;;14.18;7.28;;;;;;;;;;5045220;28;20400;-75
2023/08/15 02:06:51;;;;;;;11.10;7.43;;;;;;;;;;5034614;28;20483;-76
2023/08/15 02:09:35;;;;;;;10.38;6.60;;;;;;;;;;5033474;28;20745;-75
2023/08/15 02:12:20;;;;;;;12.38;6.80;;;;;;;;;;5046011;28;20885;-75
2023/08/15 02:15:05;;;;;;;10.83;7.17;;;;;;;;;;5035700;28;20395;-76
2023/08/15 02:17:50;;;;;;;8.40;6.90;;;;;;;;;;5045206;28;20386;-75
2023/08/15 02:20:34;;;;;;;10.40;7.40;;;;;;;;;;5046214;28;20447;-76
2023/08/15 02:23:19;;;;;;;10.48;6.80;;;;;;;;;;5043885;28;20824;-75
2023/08/15 02:26:04;;;;;;;9.88;6.35;;;;;;;;;;5044313;28;20435;-75
2023/08/15 02:28:49;;;;;;;8.77;6.63;;;;;;;;;;5049257;28;20382;-74
2023/08/15 02:31:33;;;;;;;8.88;6.68;;;;;;;;;;5032925;28;20450;-75
2023/08/15 02:34:18;;;;;;;10.60;7.20;;;;;;;;;;5032436;28;20397;-75
2023/08/15 02:37:03;;;;;;;10.45;7.28;;;;;;;;;;5047466;28;20392;-75
2023/08/15 02:39:47;;;;;;;12.73;6.85;;;;;;;;;;5046218;28;20473;-75
2023/08/15 02:42:33;;;;;;;8.60;6.75;;;;;;;;;;5040828;28;20484;-75
2023/08/15 02:45:17;;;;;;;10.40;7.20;;;;;;;;;;5022234;28;20397;-74
2023/08/15 02:48:02;;;;;;;9.10;7.30;;;;;;;;;;5032726;28;20384;-75
2023/08/15 02:50:46;;;;;;;9.02;7.07;;;;;;;;;;5045597;28;20401;-75
2023/08/15 02:53:31;;;;;;;10.15;7.05;;;;;;;;;;5044579;28;20406;-74
2023/08/15 02:56:16;;;;;;;9.88;6.65;;;;;;;;;;5032050;28;20440;-75
2023/08/15 02:59:00;;;;;;;9.63;6.95;;;;;;;;;;5048283;28;20495;-75
2023/08/15 03:01:45;;;;;;;9.82;6.88;;;;;;;;;;5045660;28;20900;-75
2023/08/15 03:04:29;;;;;;;8.35;6.53;;;;;;;;;;5045277;28;20408;-75
2023/08/15 03:07:14;;;;;;;11.40;6.80;;;;;;;;;;5046114;28;20416;-76
2023/08/15 03:09:58;;;;;;;8.98;6.97;;;;;;;;;;5044971;28;20393;-75
2023/08/15 03:12:43;;;;;;;8.95;6.80;;;;;;;;;;5039242;28;20756;-75
2023/08/15 03:15:28;;;;;;;9.13;6.97;;;;;;;;;;5047550;28;20388;-74
2023/08/15 03:18:12;;;;;;;8.25;7.00;;;;;;;;;;5044336;28;20483;-75
2023/08/15 03:21:04;;;;;;;9.73;6.80;;;;;;;;;;5047095;28;20462;-75
2023/08/15 03:23:48;;;;;;;7.53;6.68;;;;;;;;;;5047768;28;20394;-75
2023/08/15 03:26:33;;;;;;;7.55;6.55;;;;;;;;;;5050420;28;20442;-75
2023/08/15 03:29:18;;;;;;;9.10;6.40;;;;;;;;;;5047615;28;20420;-75
2023/08/15 03:32:03;;;;;;;9.80;6.60;;;;;;;;;;5050080;28;20444;-75
2023/08/15 03:34:47;;;;;;;7.67;6.57;;;;;;;;;;5051470;28;20431;-75
2023/08/15 03:37:32;;;;;;;9.07;6.68;;;;;;;;;;5035843;28;20760;-75
2023/08/15 03:40:16;;;;;;;8.68;7.43;;;;;;;;;;5050672;28;20403;-75
2023/08/15 03:43:01;;;;;;;9.30;7.30;;;;;;;;;;5047526;28;20412;-75
2023/08/15 03:45:45;;;;;;;10.52;7.53;;;;;;;;;;5050099;28;20431;-75
2023/08/15 03:48:30;;;;;;;11.63;8.57;;;;;;;;;;5050671;28;20397;-75
2023/08/15 03:51:14;;;;;;;12.20;8.70;;;;;;;;;;5046777;28;20416;-75
2023/08/15 03:53:59;;;;;;;9.35;7.68;;;;;;;;;;5048652;28;20398;-75
2023/08/15 03:56:43;;;;;;;10.35;8.40;;;;;;;;;;5048415;28;20397;-75
2023/08/15 03:59:28;;;;;;;9.57;8.57;;;;;;;;;;5040190;28;20447;-76
2023/08/15 04:02:12;;;;;;;12.38;8.75;;;;;;;;;;5053687;28;20394;-80
2023/08/15 04:04:57;;;;;;;14.15;8.32;;;;;;;;;;5048130;28;20447;-76
2023/08/15 04:07:42;;;;;;;12.80;8.40;;;;;;;;;;5048292;28;20429;-75
2023/08/15 04:10:26;;;;;;;10.52;8.85;;;;;;;;;;5050509;28;20376;-75
2023/08/15 04:13:11;;;;;;;12.70;9.57;;;;;;;;;;5048507;28;20413;-75
2023/08/15 04:15:55;;;;;;;9.85;8.57;;;;;;;;;;5051570;28;20451;-75
2023/08/15 04:18:40;;;;;;;11.38;9.23;;;;;;;;;;5037122;28;20408;-76
2023/08/15 04:21:25;;;;;;;13.80;9.40;;;;;;;;;;5047825;28;20420;-75
2023/08/15 04:24:09;;;;;;;14.23;9.35;;;;;;;;;;5042603;28;20487;-76
2023/08/15 04:26:53;;;;;;;18.33;10.32;;;;;;;;;;5047420;28;20435;-75
2023/08/15 04:29:38;;;;;;;16.20;9.30;;;;;;;;;;5047921;28;20404;-75
2023/08/15 04:32:22;;;;;;;20.88;9.90;;;;;;;;;;5049155;28;20475;-75
2023/08/15 04:35:08;;;;;;;16.42;9.30;;;;;;;;;;5044953;28;20411;-76
2023/08/15 04:37:52;;;;;;;15.52;10.10;;;;;;;;;;5051546;28;20523;-76
2023/08/15 04:40:39;;;;;;;11.05;9.88;;;;;;;;;;5048557;28;20457;-76
2023/08/15 04:43:24;;;;;;;12.63;10.67;;;;;;;;;;5047059;28;20416;-76
2023/08/15 04:46:09;;;;;;;15.95;11.32;;;;;;;;;;5049095;28;20451;-76
2023/08/15 04:48:53;;;;;;;15.15;11.82;;;;;;;;;;5048276;28;20434;-76
2023/08/15 04:51:38;;;;;;;14.25;11.05;;;;;;;;;;5048237;28;20483;-75
2023/08/15 04:54:23;;;;;;;16.42;12.02;;;;;;;;;;5048681;28;20424;-75
2023/08/15 04:57:07;;;;;;;15.27;11.33;;;;;;;;;;5042863;28;20416;-74
2023/08/15 04:59:52;;;;;;;12.95;11.15;;;;;;;;;;5033582;28;20400;-74
2023/08/15 05:02:36;;;;;;;14.15;11.27;;;;;;;;;;5046812;28;20451;-73
2023/08/15 05:05:21;;;;;;;14.53;12.10;;;;;;;;;;5048985;28;20932;-74
2023/08/15 05:08:06;;;;;;;12.95;11.30;;;;;;;;;;5046971;28;20400;-74
2023/08/15 05:10:52;;;;;;;14.90;11.57;;;;;;;;;;5045109;28;20749;-75
2023/08/15 05:13:37;;;;;;;14.52;11.35;;;;;;;;;;5037474;28;20458;-74
2023/08/15 05:16:21;;;;;;;15.93;11.13;;;;;;;;;;5049762;28;20791;-74
2023/08/15 05:19:06;;;;;;;13.13;11.27;;;;;;;;;;5033891;28;20442;-75
2023/08/15 05:21:50;;;;;;;14.50;11.35;;;21.60;99.90;;;;;;5048265;28;20452;-76
2023/08/15 05:24:34;;;;;;;15.20;10.93;;;20.70;99.90;;;;;;5031602;28;20404;-78
2023/08/15 05:27:18;;;;;;;13.90;11.32;;;20.70;99.90;;;;;;5034584;28;20448;-76
2023/08/15 05:30:03;;;;;;;12.03;10.37;;;20.70;99.90;;;;;;5035295;28;20409;-75
2023/08/15 05:32:47;;;;;;;18.15;10.23;;;20.70;99.90;;;;;;5026870;28;20402;-75
2023/08/15 05:35:32;;;;;;;15.63;10.75;;;20.80;99.90;;;;;;5026330;28;20390;-75
2023/08/15 05:38:16;;;;;;;14.15;10.90;;;20.80;99.90;;;;;;5024470;28;20418;-76
2023/08/15 05:41:01;;;;;;;13.23;10.77;;;20.80;99.90;;;;;;5023640;28;20426;-76
2023/08/15 05:43:45;;;;;;;12.97;10.80;;;;;;;;;;5021921;28;20448;-75
2023/08/15 05:46:30;;;;;;;14.48;11.20;;;;;;;;;;5039830;28;20410;-75
2023/08/15 05:49:14;;;;;;;13.10;11.25;;;;;;;;;;5021134;28;20502;-75
2023/08/15 05:52:00;;;;;;;12.65;11.43;;;;;;;;;;5024619;28;20394;-76
2023/08/15 05:54:45;;;;;;;16.20;11.13;;;;;;;;;;5020236;28;20505;-77
2023/08/15 05:57:29;;;;;;;17.02;11.27;;;;;;;;;;5037740;28;20402;-75
2023/08/15 06:00:14;;;;;;;14.30;11.82;;;;;;;;;;5026315;28;20898;-76
2023/08/15 06:02:58;;;;;;;16.20;11.70;;;;;;;;;;5036718;28;20401;-76
2023/08/15 06:05:43;;;;;;;16.45;11.88;;;;;;;;;;5025570;28;20414;-76
2023/08/15 06:08:28;;;;;;;15.15;12.32;;;;;;;;;;5030055;28;20409;-77
2023/08/15 06:11:12;;;;;;;16.95;11.95;;;;;;;;;;5041236;28;20394;-78
2023/08/15 06:13:57;;;;;;;15.00;12.20;;;;;;;;;;5027297;28;20427;-77
2023/08/15 06:16:42;;;;;;;14.70;11.83;;;;;;;;;;5040772;28;20441;-76
2023/08/15 06:19:26;;;;;;;12.98;11.50;;;;;;;;;;5028302;28;20406;-76
2023/08/15 06:22:11;;;;;;;12.90;10.45;;;;;;;;;;5041392;28;20449;-76
2023/08/15 06:24:55;;;;;;;12.13;10.98;;;;;;;;;;5024087;28;20496;-76
2023/08/15 06:27:40;;;;;;;12.82;10.73;;;;;;;;;;5027250;28;20406;-77
2023/08/15 06:30:25;;;;;;;11.57;10.35;;;;;;;;;;5038268;28;20422;-76
2023/08/15 06:33:10;;;;;;;13.07;10.57;;;;;;;;;;5046373;28;20886;-77
2023/08/15 06:35:54;;;;;;;12.18;10.57;;;;;;;;;;5047533;28;20392;-76
2023/08/15 06:38:39;;;;;;;11.90;9.93;;;;;;;;;;5045172;28;20472;-76
2023/08/15 06:41:24;;;;;;;10.97;9.97;;;;;;;;;;5047056;28;20397;-76
2023/08/15 06:44:08;;;;;;;11.43;10.23;;;;;;;;;;5047125;28;20384;-77
2023/08/15 06:46:53;;;;;;;12.93;10.90;;;;;;;;;;5047384;28;20435;-77
2023/08/15 06:49:37;;;;;;;13.45;10.52;;;;;;;;;;5047168;28;20424;-77
2023/08/15 06:52:22;;;;;;;11.32;10.10;;;;;;;;;;5045779;28;20396;-78
2023/08/15 06:55:07;;;;;;;12.63;10.35;;;;;;;;;;5039190;28;20395;-78
2023/08/15 06:57:51;;;;;;;11.68;10.10;;;;;;;;;;5041471;28;20476;-77
2023/08/15 07:00:36;;;;;;;12.55;10.55;;;;;;;;;;5046518;28;20756;-77
2023/08/15 07:03:20;;;;;;;11.43;10.00;;;;;;;;;;5045429;28;20999;-78
2023/08/15 07:06:05;;;;;;;13.10;10.68;;;;;;;;;;5043499;28;20463;-78
2023/08/15 07:08:50;;;;;;;17.27;10.57;;;;;;;;;;5048815;28;20456;-78
2023/08/15 07:11:35;;;;;;;12.18;10.88;;;;;;;;;;5047597;28;20534;-78
2023/08/15 07:14:19;;;;;;;13.93;10.87;;;;;;;;;;5042371;28;20394;-77
2023/08/15 07:17:04;;;;;;;12.30;10.27;;;;;;;;;;5045796;28;20401;-77
2023/08/15 07:19:48;;;;;;;15.13;10.80;;;;;;;;;;5044589;28;20496;-77
2023/08/15 07:22:33;;;;;;;11.73;10.52;;;;;;;;;;5030979;28;20392;-77
2023/08/15 07:25:18;;;;;;;11.48;10.38;;;;;;;;;;5049092;28;20439;-78
2023/08/15 07:28:03;;;;;;;10.93;9.93;;;;;;;;;;5043895;28;20773;-77
2023/08/15 07:30:48;;;;;;;12.02;9.77;;;;;;;;;;5043998;28;20494;-77
2023/08/15 07:33:33;;;;;;;12.43;10.05;;;;;;;;;;5045885;28;20397;-79
2023/08/15 07:36:17;;;;;;;11.27;10.17;;;;;;;;;;5048620;28;20389;-77
2023/08/15 07:39:03;;;;;;;12.07;10.05;;;;;;;;;;5046286;28;20388;-77
2023/08/15 07:41:48;;;;;;;11.40;10.30;;;;;;;;;;5044912;28;20435;-76
2023/08/15 07:44:32;;;;;;;12.77;10.40;;;;;;;;;;5044548;28;20455;-77
2023/08/15 07:47:16;;;;;;;13.45;10.38;;;;;;;;;;5043061;28;20456;-77
2023/08/15 07:50:12;;;;;;;13.57;11.00;;;;;;;;;;5043704;28;20504;-77
2023/08/15 07:53:00;;;;;;;14.50;11.80;;;;;;;;;;5042050;28;20503;-77
2023/08/15 07:55:44;;;;;;;16.40;12.45;;;;;;;;;;5046874;28;20376;-77
2023/08/15 07:58:29;;;;;;;13.30;12.05;;;;;;;;;;5044261;28;20407;-77
2023/08/15 08:01:13;;;;;;;14.18;12.75;;;;;;;;;;5047539;28;20409;-77
2023/08/15 08:03:58;;;;;;;15.82;13.48;;;;;;;;;;5043964;28;20386;-77
2023/08/15 08:06:42;;;;;;;16.13;12.53;;;;;;;;;;5045094;28;20419;-77
2023/08/15 08:09:27;;;;;;;14.88;12.63;;;;;;;;;;5044312;28;20416;-77
2023/08/15 08:12:12;;;;;;;15.68;12.90;;;;;;;;;;5047781;28;20397;-77
2023/08/15 08:14:57;;;;;;;14.10;12.57;;;;;;;;;;5048409;28;20384;-77
2023/08/15 08:17:41;;;;;;;14.27;12.57;;;;;;;;;;5049499;28;20416;-77
2023/08/15 08:20:26;;;;;;;14.90;12.50;;;;;;;;;;5051912;28;20427;-77
2023/08/15 08:23:12;;;;;;;16.60;12.15;;;;;;;;;;5050292;28;20383;-77
2023/08/15 08:25:57;;;;;;;13.48;11.98;;;;;;;;;;5039577;28;20466;-77
2023/08/15 08:28:41;;;;;;;14.83;11.43;;;;;;;;;;5049883;28;20447;-76
2023/08/15 08:31:26;;;;;;;13.23;11.27;;;;;;;;;;5036421;28;20447;-77
2023/08/15 08:34:14;;;;;;;14.77;11.52;;;;;;;;;;5049286;28;20422;-78
2023/08/15 08:36:58;;;;;;;13.98;10.65;;;;;;;;;;5051616;28;20745;-77
2023/08/15 08:39:43;;;;;;;14.75;11.30;;;;;;;;;;5035855;28;20443;-77
2023/08/15 08:42:28;;;;;;;14.38;11.30;;;;;;;;;;5033022;28;20412;-78
2023/08/15 08:45:12;;;;;;;14.80;10.95;;;;;;;;;;5050174;28;20910;-77
2023/08/15 08:47:58;;;;;;;14.73;10.90;;;;;;;;;;5048375;28;20459;-77
2023/08/15 08:50:43;;;;;;;13.90;11.25;;;;;;;;;;5047402;28;20380;-77
2023/08/15 08:53:27;;;;;;;12.88;10.52;;;;;;;;;;5049022;28;20393;-77
2023/08/15 08:56:12;;;;;;;12.25;10.02;;;;;;;;;;5049987;28;20441;-77
2023/08/15 08:59:07;;;;;;;12.95;9.80;;;;;;;;;;5033951;28;20443;-77
2023/08/15 09:01:53;;;;;;;12.63;8.73;;;;;;;;;;5048342;28;20440;-77
2023/08/15 09:04:38;;;;;;;15.30;8.52;;;;;;;;;;5047440;28;20416;-77
2023/08/15 09:07:23;;;;;;;12.13;7.88;;;;;;;;;;5050836;28;20408;-76
2023/08/15 09:10:08;;;;;;;13.77;7.53;;;;;;;;;;5048346;28;20433;-77
2023/08/15 09:12:57;;;;;;;9.80;6.65;;;;;;;;;;5047616;28;20408;-77
2023/08/15 09:15:48;;;;;;;9.57;5.40;;;;;;;;;;5041149;28;20459;-77
2023/08/15 09:18:36;;;;;;;9.03;5.13;;;;;;;;;;5048599;28;20431;-77
2023/08/15 09:21:21;;;;;;;9.60;5.20;;;23.40;99.90;;;;;;5048953;28;20373;-77
2023/08/15 09:24:06;;;;;;;10.35;5.03;;;23.40;99.90;;;;;;5028040;28;20401;-77
2023/08/15 09:26:50;;;;;;;8.97;4.77;;;23.40;99.90;;;;;;5036789;28;20463;-77
2023/08/15 09:29:35;;;;;;;8.60;4.90;;;23.40;99.90;;;;;;5055856;28;20466;-77
2023/08/15 09:32:18;;;;;;;9.63;4.50;;;23.40;99.90;;;;;;5032288;28;20455;-77
2023/08/15 09:35:03;;;;;;;8.57;4.57;;;23.40;99.90;;;;;;5047566;28;20494;-77
2023/08/15 09:37:49;;;;;;;8.88;4.47;;;23.40;99.90;;;;;;5043236;28;20416;-77
2023/08/15 09:40:33;;;;;;;8.02;3.80;;;23.30;99.90;;;;;;5031933;28;20396;-77
2023/08/15 09:43:17;;;;;;;7.57;4.20;;;23.40;99.90;;;;;;5034762;28;20488;-76
2023/08/15 09:46:02;;;;;;;8.80;3.70;;;23.40;99.90;;;;;;5049138;28;20428;-77
2023/08/15 09:48:48;;;;;;;6.65;3.72;;;23.30;99.90;;;;;;5033826;28;20409;-77
2023/08/15 09:51:33;;;;;;;8.02;3.90;;;23.40;99.90;;;;;;5031456;28;20423;-77
2023/08/15 09:54:20;;;;;;;6.33;3.50;;;23.50;99.90;;;;;;5031784;28;20408;-77
2023/08/15 09:57:04;;;;;;;6.22;2.88;;;23.50;99.90;;;;;;5035880;28;20385;-77
2023/08/15 09:59:48;;;;;;;7.17;3.53;;;23.60;99.90;;;;;;5050580;28;20760;-77
2023/08/15 10:02:42;;;;;;;5.55;3.17;;;23.60;99.90;;;;;;5047531;28;20400;-77
2023/08/15 10:05:31;;;;;;;5.43;2.60;;;23.60;99.90;;;;;;5030749;28;20426;-77
2023/08/15 10:08:18;;;;;;;4.83;2.40;;;23.70;99.90;;;;;;5051146;28;20881;-76
2023/08/15 10:11:05;;;;;;;4.45;2.60;;;23.90;99.90;;;;;;5032852;28;20383;-77
2023/08/15 10:13:50;;;;;;;4.70;2.40;;;23.90;99.90;;;;;;5036942;28;20543;-77
2023/08/15 10:16:35;;;;;;;4.22;2.00;;;23.80;99.90;;;;;;5045226;28;20391;-76
2023/08/15 10:19:20;;;;;;;4.88;2.50;;;23.90;99.90;;;;;;5048229;28;20416;-77
2023/08/15 10:22:06;;;;;;;5.53;2.10;;;23.80;99.90;;;;;;5046755;28;20397;-77
2023/08/15 10:24:50;;;;;;;5.45;2.28;;;;;;;;;;5051179;28;20472;-77
2023/08/15 10:27:34;;;;;;;3.58;2.13;;;23.90;99.90;;;;;;5049354;28;20407;-77
2023/08/15 10:30:40;;;;;;;6.28;2.00;;;23.70;99.90;;;;;;5035878;28;20450;-77
2023/08/15 10:33:27;;;;;;;4.90;2.38;;;;;;;;;;5032392;28;20476;-76
2023/08/15 10:36:11;;;;;;;3.97;2.40;;;;;;;;;;5046268;28;20408;-77
2023/08/15 10:38:56;;;;;;;6.95;2.40;;;23.90;99.90;;;;;;5034915;28;20389;-77
2023/08/15 10:41:42;;;;;;;5.85;2.03;;;24.00;99.90;;;;;;5048968;28;20579;-77
2023/08/15 10:44:26;;;;;;;5.00;2.10;;;24.00;99.90;;;;;;5028755;28;20408;-77
2023/08/15 10:47:23;;;;;;;4.85;1.80;;;24.00;99.90;;;;;;5048651;28;20448;-77
2023/08/15 10:50:08;;;;;;;5.63;1.85;;;24.00;99.90;;;;;;5034930;28;20399;-78
2023/08/15 10:53:00;;;;;;;3.70;1.60;;;24.00;99.90;;;;;;5029857;28;20386;-77
2023/08/15 10:55:44;;;;;;;2.90;1.80;;;24.20;99.90;;;;;;5029309;28;20723;-77
2023/08/15 10:58:28;;;;;;;4.38;2.10;;;24.20;99.90;;;;;;5036056;28;20412;-77
2023/08/15 11:01:17;;;;;;;5.80;2.33;;;24.30;99.90;;;;;;5033699;28;20388;-77
2023/08/15 11:04:02;;;;;;;3.97;1.97;;;24.40;99.90;;;;;;5031689;28;20479;-77
2023/08/15 11:06:48;;;;;;;4.60;1.85;;;24.40;99.90;;;;;;5047120;28;20426;-77
2023/08/15 11:09:32;;;;;;;6.30;2.05;;;24.50;99.90;;;;;;5033211;28;20461;-77
2023/08/15 11:12:17;;;;;;;5.32;2.15;;;24.50;99.90;;;;;;5036698;28;20402;-77
2023/08/15 11:15:01;;;;;;;5.18;2.20;;;24.40;99.90;;;;;;5036528;28;20911;-77
2023/08/15 11:17:46;;;;;;;4.73;2.10;;;;;;;;;;5036985;28;20440;-77
2023/08/15 11:20:31;;;;;;;4.70;1.92;;;;;;;;;;5045308;28;20438;-77
2023/08/15 11:23:16;;;;;;;4.80;2.10;;;;;;;;;;5052910;28;20393;-77
2023/08/15 11:26:05;;;;;;;4.72;2.28;;;;;;;;;;5048786;28;20412;-77
2023/08/15 11:28:50;;;;;;;4.88;1.95;;;;;;;;;;5036681;28;20757;-77
2023/08/15 11:31:36;;;;;;;5.07;2.10;;;;;;;;;;5045261;28;20388;-77
2023/08/15 11:34:23;;;;;;;4.72;1.90;;;;;;;;;;5035221;28;20412;-77
2023/08/15 11:37:09;;;;;;;4.57;2.23;;;;;;;;;;5032998;28;20400;-76
2023/08/15 11:39:54;;;;;;;2.80;2.10;;;;;;;;;;5045676;28;20897;-77
2023/08/15 11:42:39;;;;;;;4.20;2.10;;;;;;;;;;5043999;28;20388;-77
2023/08/15 11:45:24;;;;;;;4.57;1.98;;;;;;;;;;5048444;28;20442;-78
2023/08/15 11:48:09;;;;;;;4.00;1.90;;;;;;;;;;5038061;28;20447;-77
2023/08/15 11:50:53;;;;;;;3.05;1.80;;;;;;;;;;5053447;28;20753;-77
2023/08/15 11:53:37;;;;;;;4.50;1.95;;;;;;;;;;5050580;28;20400;-78
2023/08/15 11:56:22;;;;;;;3.53;1.70;;;;;;;;;;5053263;28;20387;-75
2023/08/15 11:59:16;;;;;;;5.30;1.90;;;;;;;;;;5044629;28;20471;-77
2023/08/15 12:02:01;;;;;;;2.40;1.50;;;;;;;;;;5049486;28;20477;-75
2023/08/15 12:04:47;;;;;;;4.18;1.48;;;;;;;;;;5037580;28;20419;-75
2023/08/15 12:07:32;;;;;;;3.78;1.50;;;;;;;;;;5047949;28;20459;-76
2023/08/15 12:10:17;;;;;;;4.72;1.40;;;;;;;;;;5048415;28;20389;-77
2023/08/15 12:13:02;;;;;;;2.40;1.52;;;;;;;;;;5049286;28;20396;-75
2023/08/15 12:15:47;;;;;;;2.83;1.55;;;;;;;;;;5049829;28;20424;-76
2023/08/15 12:18:32;;;;;;;2.10;1.40;;;;;;;;;;5043571;28;20485;-78
2023/08/15 12:21:17;;;;;;;3.70;1.50;;;;;;;;;;5038490;28;20891;-75
2023/08/15 12:24:02;;;;;;;4.50;1.70;;;;;;;;;;5038510;28;20443;-75
2023/08/15 12:26:47;;;;;;;3.45;1.40;;;;;;;;;;5053340;28;20414;-76
2023/08/15 12:29:31;;;;;;;4.75;1.60;;;;;;;;;;5036715;28;20505;-75
2023/08/15 12:32:16;;;;;;;3.15;1.58;;;;;;;;;;5050582;28;20392;-77
2023/08/15 12:35:01;;;;;;;2.50;1.55;;;;;;;;;;5049848;28;20396;-77
2023/08/15 12:37:45;;;;;;;3.25;1.58;;;;;;;;;;5049716;28;20796;-77
2023/08/15 12:40:31;;;;;;;6.30;1.50;;;;;;;;;;5039366;28;20398;-77
2023/08/15 12:43:15;;;;;;;3.35;1.50;;;;;;;;;;5048233;28;20488;-77
2023/08/15 12:46:00;;;;;;;2.60;1.30;;;;;;;;;;5047199;28;20474;-77
2023/08/15 12:48:45;;;;;;;3.27;1.50;;;;;;;;;;5050821;28;20424;-77
2023/08/15 12:51:31;;;;;;;2.17;1.30;;;;;;;;;;5045686;28;20420;-77
2023/08/15 12:54:17;;;;;;;2.85;1.50;;;;;;;;;;5050448;28;20866;-77
2023/08/15 12:57:02;;;;;;;1.95;1.40;;;;;;;;;;5050491;28;20462;-78
2023/08/15 12:59:46;;;;;;;2.75;1.52;;;;;;;;;;5048069;28;20452;-77
2023/08/15 13:02:31;;;;;;;3.20;1.27;;;;;;;;;;5049665;28;20396;-77
2023/08/15 13:05:16;;;;;;;2.70;1.50;;;;;;;;;;5043199;28;20484;-76
2023/08/15 13:08:00;;;;;;;3.60;1.33;;;;;;;;;;5035958;28;20501;-77
2023/08/15 13:10:45;;;;;;;3.17;1.27;;;;;;;;;;5036745;28;20393;-78
2023/08/15 13:13:29;;;;;;;2.75;1.35;;;;;;;;;;5049330;28;20477;-77
2023/08/15 13:16:14;;;;;;;2.72;1.42;;;;;;;;;;5033821;28;21181;-77
2023/08/15 13:18:59;;;;;;;4.27;1.60;;;25.40;99.90;;;;;;5047188;28;20927;-77
2023/08/15 13:21:43;;;;;;;4.35;1.60;;;25.80;99.90;;;;;;5050437;28;20401;-78
2023/08/15 13:24:27;;;;;;;5.07;1.60;;;25.80;99.90;;;;;;5051906;28;20460;-77
2023/08/15 13:27:12;;;;;;;4.05;1.70;;;25.80;99.90;;;;;;5036127;28;20429;-79
2023/08/15 13:29:57;;;;;;;3.90;1.60;;;25.90;99.90;;;;;;5037104;28;20415;-77
2023/08/15 13:32:41;;;;;;;3.13;1.43;;;25.90;99.90;;;;;;5034109;28;20404;-77
2023/08/15 13:35:26;;;;;;;3.25;1.60;;;26.00;99.90;;;;;;5032065;28;20494;-76
2023/08/15 13:38:13;;;;;;;4.95;1.52;;;26.00;99.90;;;;;;5034306;28;20451;-77
2023/08/15 13:40:57;;;;;;;3.83;1.50;;;25.90;99.90;;;;;;5035849;28;20396;-77
2023/08/15 13:43:41;;;;;;;2.88;1.55;;;25.40;99.90;;;;;;5034907;28;20393;-78
2023/08/15 13:46:25;;;;;;;3.10;1.83;;;25.90;99.90;;;;;;5033878;28;20564;-77
2023/08/15 13:49:09;;;;;;;4.45;1.70;;;25.90;99.90;;;;;;5038388;28;20559;-78
2023/08/15 13:51:54;;;;;;;3.33;1.70;;;25.90;99.90;;;;;;5051726;28;20385;-78
2023/08/15 13:54:38;;;;;;;3.00;1.70;;;26.00;99.90;;;;;;5048683;28;20380;-79
2023/08/15 13:57:22;;;;;;;2.80;1.50;;;26.10;99.90;;;;;;5035904;28;20388;-78
2023/08/15 14:00:07;;;;;;;5.47;1.70;;;26.10;99.90;;;;;;5031471;28;20401;-78
2023/08/15 14:02:51;;;;;;;3.45;1.50;;;26.00;99.90;;;;;;5034331;28;20392;-79
2023/08/15 14:05:35;;;;;;;4.50;1.90;;;26.00;99.90;;;;;;5034988;28;20390;-77
2023/08/15 14:08:20;;;;;;;5.03;1.90;;;26.00;99.90;;;;;;5049233;28;20397;-78
2023/08/15 14:11:04;;;;;;;4.60;1.80;;;25.90;99.90;;;;;;5036292;28;20469;-76
2023/08/15 14:13:48;;;;;;;4.13;1.65;;;25.90;99.90;;;;;;5033779;28;20444;-75
2023/08/15 14:16:32;;;;;;;2.33;1.58;;;25.80;99.90;;;;;;5051100;28;20467;-74
2023/08/15 14:19:16;;;;;;;3.92;1.85;;;25.90;99.90;;;;;;5034855;28;20411;-73
2023/08/15 14:22:01;;;;;;;4.07;1.70;;;25.70;99.90;;;;;;5048550;28;20481;-73
2023/08/15 14:24:48;;;;;;;2.85;1.80;;;25.70;99.90;;;;;;5053491;28;20407;-73
2023/08/15 14:27:32;;;;;;;4.18;1.67;;;25.70;99.90;;;;;;5033326;28;21060;-73
2023/08/15 14:30:17;;;;;;;4.38;1.70;;;25.70;99.90;;;;;;5035988;28;20392;-72
2023/08/15 14:33:01;;;;;;;4.53;1.88;;;25.70;99.90;;;;;;5034782;28;20442;-74
2023/08/15 14:35:46;;;;;;;4.93;1.70;;;25.70;99.90;;;;;;5032401;28;20401;-73
2023/08/15 14:38:30;;;;;;;6.00;2.03;;;25.70;99.90;;;;;;5040989;28;20379;-75
2023/08/15 14:41:14;;;;;;;5.93;1.80;;;25.60;99.90;;;;;;5035527;28;20596;-72
2023/08/15 14:43:59;;;;;;;6.35;1.95;;;25.60;99.90;;;;;;5033990;28;20396;-72
2023/08/15 14:46:43;;;;;;;2.47;1.60;;;25.60;99.90;;;;;;5028957;28;20458;-74
2023/08/15 14:49:27;;;;;;;5.90;1.88;;;25.70;99.90;;;;;;5036490;28;20403;-74
2023/08/15 14:52:11;;;;;;;2.92;1.80;;;25.70;99.90;;;;;;5040070;28;20434;-74
2023/08/15 14:54:55;;;;;;;3.78;1.90;;;25.70;99.90;;;;;;5044814;28;20396;-75
2023/08/15 14:57:39;;;;;;;3.55;1.90;;;25.70;99.90;;;;;;5030376;28;20463;-74
2023/08/15 15:00:24;;;;;;;6.00;2.00;;;25.70;99.90;;;;;;5054698;28;20422;-74
2023/08/15 15:03:08;;;;;;;3.00;1.92;;;25.70;99.90;;;;;;5037525;28;20428;-73
2023/08/15 15:05:52;;;;;;;6.55;3.60;;;25.70;99.90;;;;;;5031818;28;20398;-74
2023/08/15 15:08:36;;;;;;;5.23;2.63;;;25.80;99.90;;;;;;5029317;28;20406;-74
2023/08/15 15:11:20;;;;;;;4.65;2.78;;;25.80;99.90;;;;;;5034545;28;20551;-74
2023/08/15 15:14:04;;;;;;;6.35;2.38;;;25.70;99.90;;;;;;5037995;28;20404;-74
2023/08/15 15:16:50;;;;;;;5.05;2.10;;;25.80;99.90;;;;;;5039216;28;20446;-74
2023/08/15 15:19:34;;;;;;;3.40;2.15;;;25.80;99.90;;;;;;5046934;28;20463;-72
2023/08/15 15:22:19;;;;;;;6.50;2.10;;;25.80;99.90;;;;;;5055214;28;20892;-73
2023/08/15 15:25:06;;;;;;;3.65;1.65;;;25.80;99.90;;;;;;5051441;28;20532;-73
2023/08/15 15:27:50;;;;;;;2.10;1.80;;;25.90;99.90;;;;;;5038817;28;20427;-72
2023/08/15 15:30:34;;;;;;;4.45;1.90;;;25.90;99.90;;;;;;5036353;28;20459;-72
2023/08/15 15:33:19;;;;;;;6.07;2.17;;;26.00;99.90;;;;;;5037719;28;20463;-73
2023/08/15 15:36:03;;;;;;;4.90;2.20;;;26.10;99.90;;;;;;5042649;28;20878;-73
2023/08/15 15:38:48;;;;;;;3.60;1.90;;;26.10;99.90;;;;;;5034445;28;20428;-75